Time;durP1;ratioP1;P1;durP2;ratioP2;P2;SDS_P1;SDS_P2;PMS_P1;PMS_P2;Temp;Humidity;BMP_temperature;BMP_pressure;BME280_temperature;BME280_humidity;BME280_pressure;Samples;Min_cycle;Max_cycle;Signal;HPM_P1;HPM_P2
2023/06/27 00:00:18;;;;;;;4.35;2.70;;;16.40;31.20;;;;;;5108087;28;20394;-71
2023/06/27 00:02:46;;;;;;;6.85;3.30;;;16.30;31.50;;;;;;5106800;28;20388;-71
2023/06/27 00:05:12;;;;;;;8.07;3.00;;;16.30;31.60;;;;;;5095904;28;20394;-71
2023/06/27 00:07:38;;;;;;;5.90;2.70;;;16.20;31.90;;;;;;5094205;28;20382;-70
2023/06/27 00:10:04;;;;;;;4.70;3.10;;;16.20;32.20;;;;;;5093964;28;20515;-70
2023/06/27 00:12:30;;;;;;;5.57;3.03;;;16.20;32.60;;;;;;5094143;28;20378;-72
2023/06/27 00:14:56;;;;;;;6.17;3.10;;;16.30;32.30;;;;;;5094045;28;20386;-70
2023/06/27 00:17:23;;;;;;;4.85;2.90;;;16.10;32.80;;;;;;5094088;28;20397;-70
2023/06/27 00:19:49;;;;;;;7.13;3.10;;;16.00;33.60;;;;;;5093750;28;20749;-70
2023/06/27 00:22:15;;;;;;;12.05;3.50;;;16.00;33.60;;;;;;5093357;28;20405;-70
2023/06/27 00:24:41;;;;;;;4.80;2.92;;;16.00;33.60;;;;;;5093455;28;20406;-71
2023/06/27 00:27:07;;;;;;;6.47;3.22;;;15.90;34.10;;;;;;5093325;28;20385;-71
2023/06/27 00:29:33;;;;;;;6.13;3.10;;;15.90;34.50;;;;;;5093725;28;20378;-69
2023/06/27 00:31:58;;;;;;;4.57;3.33;;;15.90;34.60;;;;;;5093216;28;20378;-71
2023/06/27 00:34:24;;;;;;;4.70;2.70;;;15.80;34.80;;;;;;5093438;28;20390;-71
2023/06/27 00:36:49;;;;;;;7.45;3.08;;;15.80;34.80;;;;;;5093473;28;20382;-71
2023/06/27 00:39:15;;;;;;;8.03;3.00;;;15.80;35.00;;;;;;5093320;28;20842;-70
2023/06/27 00:41:41;;;;;;;6.17;2.90;;;15.80;35.20;;;;;;5093098;28;20421;-70
2023/06/27 00:44:08;;;;;;;5.28;3.40;;;15.90;35.00;;;;;;5092959;28;21021;-71
2023/06/27 00:46:38;;;;;;;5.97;3.10;;;15.80;35.30;;;;;;5075148;28;20380;-71
2023/06/27 00:49:07;;;;;;;7.55;3.22;;;15.80;35.40;;;;;;5093138;28;20389;-70
2023/06/27 00:51:33;;;;;;;5.07;3.15;;;15.70;35.80;;;;;;5093138;28;20378;-71
2023/06/27 00:53:59;;;;;;;3.75;3.28;;;15.60;36.20;;;;;;5093620;28;20900;-71
2023/06/27 00:56:26;;;;;;;5.88;2.90;;;15.60;36.30;;;;;;5093853;28;20465;-72
2023/06/27 00:58:53;;;;;;;3.78;3.00;;;15.60;36.30;;;;;;5093714;28;20866;-71
2023/06/27 01:01:19;;;;;;;6.80;3.30;;;15.70;36.20;;;;;;5074913;28;20451;-71
2023/06/27 01:03:45;;;;;;;6.45;2.92;;;15.70;36.10;;;;;;5093561;28;20811;-72
2023/06/27 01:06:42;;;;;;;4.63;3.33;;;15.80;36.00;;;;;;5093660;28;20386;-71
2023/06/27 01:09:17;;;;;;;7.75;3.50;;;15.60;36.80;;;;;;5093665;28;20440;-71
2023/06/27 01:11:53;;;;;;;7.20;3.10;;;15.60;36.70;;;;;;5102059;28;20527;-71
2023/06/27 01:14:20;;;;;;;5.20;2.88;;;15.70;37.20;;;;;;5099987;28;20385;-70
2023/06/27 01:16:47;;;;;;;5.50;3.00;;;15.70;37.00;;;;;;5092792;28;20471;-71
2023/06/27 01:19:16;;;;;;;7.20;3.40;;;15.70;36.80;;;;;;5093481;28;20478;-72
2023/06/27 01:21:44;;;;;;;6.95;3.63;;;15.70;37.20;;;;;;5093365;28;20402;-72
2023/06/27 01:24:11;;;;;;;5.30;3.40;;;15.70;37.50;;;;;;5092389;28;20890;-71
2023/06/27 01:26:36;;;;;;;5.95;3.10;;;15.60;37.60;;;;;;5092044;28;20382;-71
2023/06/27 01:29:02;;;;;;;5.70;3.13;;;15.50;38.00;;;;;;5092699;28;20753;-71
2023/06/27 01:32:01;;;;;;;4.63;2.92;;;15.40;38.50;;;;;;5092313;28;20382;-70
2023/06/27 01:34:39;;;;;;;6.47;3.10;;;15.50;39.00;;;;;;5092724;28;20414;-71
2023/06/27 01:37:30;;;;;;;6.17;3.00;;;15.50;38.70;;;;;;5092696;28;20393;-70
2023/06/27 01:40:14;;;;;;;5.38;3.40;;;15.40;39.00;;;;;;5084813;28;20390;-71
2023/06/27 01:42:41;;;;;;;4.97;3.10;;;15.40;39.20;;;;;;5092114;28;20377;-72
2023/06/27 01:45:08;;;;;;;4.97;3.30;;;15.40;39.40;;;;;;5092255;28;20405;-71
2023/06/27 01:47:37;;;;;;;4.60;3.10;;;15.40;39.50;;;;;;5091873;28;20622;-70
2023/06/27 01:50:03;;;;;;;5.07;3.30;;;15.50;39.30;;;;;;5092880;28;20382;-71
2023/06/27 01:52:29;;;;;;;5.93;3.55;;;15.50;39.50;;;;;;5091378;28;20370;-71
2023/06/27 01:54:55;;;;;;;8.52;3.70;;;15.40;39.80;;;;;;5091465;28;20386;-71
2023/06/27 01:57:21;;;;;;;8.30;3.50;;;15.50;39.50;;;;;;5091626;28;20374;-72
2023/06/27 01:59:47;;;;;;;5.80;3.10;;;15.50;40.00;;;;;;5091675;28;20580;-70
2023/06/27 02:02:12;;;;;;;9.48;3.40;;;15.40;40.10;;;;;;5091505;28;20453;-72
2023/06/27 02:04:38;;;;;;;5.63;3.50;;;15.40;40.00;;;;;;5091413;28;20878;-71
2023/06/27 02:07:04;;;;;;;7.23;4.00;;;15.50;41.00;;;;;;5091450;28;20378;-71
2023/06/27 02:09:29;;;;;;;7.77;3.30;;;15.50;40.10;;;;;;5091348;28;20377;-70
2023/06/27 02:11:55;;;;;;;7.40;4.00;;;15.50;40.00;;;;;;5091271;28;20390;-71
2023/06/27 02:14:20;;;;;;;7.17;3.70;;;15.50;39.90;;;;;;5073424;28;20467;-71
2023/06/27 02:16:46;;;;;;;6.55;3.42;;;15.50;40.30;;;;;;5091496;28;20386;-70
2023/06/27 02:19:11;;;;;;;4.80;3.70;;;15.40;40.50;;;;;;5073258;28;20381;-72
2023/06/27 02:21:37;;;;;;;6.37;3.80;;;15.40;40.70;;;;;;5090700;28;20400;-72
2023/06/27 02:24:05;;;;;;;5.28;3.70;;;15.40;40.80;;;;;;5090208;28;20513;-71
2023/06/27 02:26:30;;;;;;;5.25;3.60;;;15.30;41.10;;;;;;5090983;28;20472;-70
2023/06/27 02:28:56;;;;;;;7.10;3.97;;;15.40;41.00;;;;;;5090956;28;20380;-72
2023/06/27 02:31:22;;;;;;;8.80;4.30;;;15.40;41.10;;;;;;5091112;28;20378;-70
2023/06/27 02:33:48;;;;;;;8.15;4.13;;;15.40;42.00;;;;;;5091093;28;20380;-71
2023/06/27 02:36:13;;;;;;;9.45;3.72;;;15.50;41.00;;;;;;5090603;28;20374;-70
2023/06/27 02:38:39;;;;;;;8.55;3.90;;;15.60;41.00;;;;;;5090728;28;20378;-71
2023/06/27 02:41:05;;;;;;;6.23;3.60;;;15.60;40.00;;;;;;5090782;28;20382;-71
2023/06/27 02:43:30;;;;;;;7.00;3.73;;;15.60;40.00;;;;;;5090719;28;20382;-71
2023/06/27 02:45:57;;;;;;;6.07;3.80;;;15.60;39.70;;;;;;5090469;28;20410;-72
2023/06/27 02:48:22;;;;;;;7.00;3.80;;;15.70;39.70;;;;;;5072393;28;20381;-72
2023/06/27 02:50:50;;;;;;;7.80;4.00;;;15.70;39.70;;;;;;5090414;28;20858;-72
2023/06/27 02:53:17;;;;;;;5.00;3.00;;;15.80;39.50;;;;;;5090377;28;20739;-72
2023/06/27 02:55:42;;;;;;;7.30;3.88;;;15.70;39.60;;;;;;5090676;28;20378;-71
2023/06/27 02:58:08;;;;;;;6.55;3.78;;;15.70;39.50;;;;;;5090466;28;20377;-72
2023/06/27 03:00:33;;;;;;;8.47;4.10;;;15.70;39.60;;;;;;5090266;28;20382;-72
2023/06/27 03:02:59;;;;;;;7.67;4.13;;;15.70;39.70;;;;;;5072156;28;20530;-70
2023/06/27 03:05:24;;;;;;;7.20;4.20;;;15.70;39.80;;;;;;5090470;28;20402;-71
2023/06/27 03:07:50;;;;;;;10.63;4.63;;;15.70;39.80;;;;;;5090671;28;20385;-70
2023/06/27 03:10:16;;;;;;;7.20;4.13;;;15.70;40.10;;;;;;5090095;28;20742;-72
2023/06/27 03:12:41;;;;;;;6.67;3.80;;;15.70;40.20;;;;;;5090073;28;20788;-71
2023/06/27 03:15:07;;;;;;;9.13;4.83;;;15.80;39.80;;;;;;5090743;28;20762;-71
2023/06/27 03:17:33;;;;;;;8.88;4.70;;;15.80;40.00;;;;;;5090867;28;20460;-71
2023/06/27 03:19:58;;;;;;;10.27;4.23;;;15.70;40.00;;;;;;5090759;28;20428;-70
2023/06/27 03:22:24;;;;;;;7.95;4.32;;;15.70;40.10;;;;;;5091081;28;20480;-72
2023/06/27 03:24:49;;;;;;;8.73;4.20;;;15.70;40.10;;;;;;5090513;28;20440;-72
2023/06/27 03:27:20;;;;;;;9.57;4.33;;;15.80;40.00;;;;;;5090450;28;20406;-72
2023/06/27 03:29:45;;;;;;;8.40;4.70;;;15.90;39.80;;;;;;5090861;28;20405;-70
2023/06/27 03:32:12;;;;;;;10.17;4.00;;;15.90;39.90;;;;;;5090257;28;20480;-72
2023/06/27 03:34:40;;;;;;;8.35;4.70;;;15.90;39.50;;;;;;5090639;28;20382;-71
2023/06/27 03:37:05;;;;;;;10.00;4.20;;;16.00;38.90;;;;;;5091051;28;20386;-70
2023/06/27 03:39:31;;;;;;;8.02;4.20;;;16.00;38.70;;;;;;5090395;28;20389;-73
2023/06/27 03:41:56;;;;;;;7.60;4.50;;;16.30;37.00;;;;;;5071826;28;20393;-72
2023/06/27 03:44:22;;;;;;;10.63;4.53;;;16.70;34.60;;;;;;5089998;28;20555;-72
2023/06/27 03:46:48;;;;;;;10.17;4.20;;;16.50;34.70;;;;;;5090120;28;20386;-72
2023/06/27 03:49:13;;;;;;;13.23;4.88;;;16.60;34.50;;;;;;5092441;28;20401;-72
2023/06/27 03:51:42;;;;;;;12.20;3.67;;;17.00;33.10;;;;;;5093554;28;20451;-71
2023/06/27 03:54:09;;;;;;;9.23;4.28;;;17.10;32.90;;;;;;5093544;28;20396;-71
2023/06/27 03:56:35;;;;;;;9.17;4.20;;;17.00;32.60;;;;;;5093671;28;20393;-71
2023/06/27 03:59:00;;;;;;;13.10;4.57;;;16.90;32.90;;;;;;5093262;28;20381;-72
2023/06/27 04:01:26;;;;;;;11.23;4.00;;;17.00;32.90;;;;;;5093294;28;20390;-73
2023/06/27 04:03:51;;;;;;;10.70;4.05;;;16.90;33.30;;;;;;5093572;28;20458;-71
2023/06/27 04:06:18;;;;;;;10.57;4.00;;;17.00;33.00;;;;;;5093651;28;20382;-70
2023/06/27 04:08:44;;;;;;;15.93;3.67;;;17.00;33.10;;;;;;5093318;28;20404;-72
2023/06/27 04:11:10;;;;;;;10.05;4.00;;;17.20;32.50;;;;;;5093056;28;20923;-72
2023/06/27 04:13:36;;;;;;;12.43;3.90;;;17.30;32.00;;;;;;5093571;28;20385;-72
2023/06/27 04:16:01;;;;;;;10.27;4.00;;;17.20;32.50;;;;;;5093186;28;20390;-72
2023/06/27 04:18:27;;;;;;;11.87;4.37;;;17.30;31.60;;;;;;5093506;28;20385;-70
2023/06/27 04:20:52;;;;;;;7.93;4.30;;;17.50;31.00;;;;;;5071290;28;20449;-70
2023/06/27 04:23:18;;;;;;;15.80;4.30;;;17.50;31.20;;;;;;5073207;28;20406;-69
2023/06/27 04:25:44;;;;;;;17.17;4.30;;;17.60;30.70;;;;;;5073114;28;20430;-71
2023/06/27 04:28:10;;;;;;;13.95;4.07;;;17.70;30.70;;;;;;5073177;28;20425;-72
2023/06/27 04:30:35;;;;;;;10.27;4.60;;;17.90;30.40;;;;;;5074134;28;20380;-71
2023/06/27 04:33:03;;;;;;;10.90;4.03;;;17.90;30.10;;;;;;5072726;28;20734;-71
2023/06/27 04:35:28;;;;;;;9.30;4.70;;;18.00;29.60;;;;;;5073086;28;20474;-70
2023/06/27 04:37:56;;;;;;;13.05;4.07;;;18.00;29.40;;;;;;5072668;28;20912;-71
2023/06/27 04:40:22;;;;;;;9.45;4.20;;;18.20;29.40;;;;;;5072521;28;20718;-71
2023/06/27 04:42:47;;;;;;;10.80;3.90;;;18.10;29.20;;;;;;5072485;28;20401;-70
2023/06/27 04:45:13;;;;;;;9.17;4.00;;;18.10;29.40;;;;;;5072432;28;20802;-71
2023/06/27 04:47:39;;;;;;;12.95;4.30;;;18.00;29.70;;;;;;5072557;28;20877;-71
2023/06/27 04:50:05;;;;;;;13.33;4.90;;;18.00;29.70;;;;;;5072316;28;20391;-71
2023/06/27 04:52:31;;;;;;;18.48;4.60;;;18.00;29.80;;;;;;5072391;28;20387;-72
2023/06/27 04:54:56;;;;;;;16.48;4.60;;;18.10;29.70;;;;;;5072567;28;20470;-70
2023/06/27 04:57:22;;;;;;;11.50;4.40;;;17.90;30.20;;;;;;5072418;28;20405;-70
2023/06/27 04:59:47;;;;;;;12.77;4.60;;;18.00;30.10;;;;;;5071460;28;20394;-70
2023/06/27 05:02:13;;;;;;;12.82;4.40;;;17.80;30.40;;;;;;5072325;28;20720;-71
2023/06/27 05:04:38;;;;;;;19.20;4.93;;;17.80;30.70;;;;;;5071250;28;20404;-70
2023/06/27 05:07:04;;;;;;;13.40;5.00;;;17.80;30.70;;;;;;5073440;28;20928;-71
2023/06/27 05:09:30;;;;;;;8.83;4.10;;;17.90;30.80;;;;;;5073190;28;20377;-71
2023/06/27 05:11:56;;;;;;;9.93;3.90;;;18.00;30.50;;;;;;5074732;28;20380;-71
2023/06/27 05:14:21;;;;;;;13.40;4.50;;;17.90;30.80;;;;;;5078198;28;20481;-71
2023/06/27 05:16:47;;;;;;;18.67;4.57;;;18.00;30.50;;;;;;5079594;28;20391;-71
2023/06/27 05:19:12;;;;;;;13.40;4.67;;;18.00;30.60;;;;;;5079797;28;20403;-72
2023/06/27 05:21:38;;;;;;;13.70;4.75;;;18.00;30.60;;;;;;5093557;28;20402;-70
2023/06/27 05:24:05;;;;;;;15.40;4.90;;;17.80;31.20;;;;;;5098913;28;20837;-71
2023/06/27 05:26:34;;;;;;;14.65;5.18;;;17.70;31.60;;;;;;5097057;28;20380;-70
2023/06/27 05:29:00;;;;;;;15.43;5.30;;;17.60;32.00;;;;;;5097176;28;20398;-71
2023/06/27 05:31:27;;;;;;;11.70;4.97;;;17.60;32.00;;;;;;5101312;28;20378;-71
2023/06/27 05:33:53;;;;;;;12.15;4.70;;;17.60;32.00;;;;;;5098945;28;20465;-71
2023/06/27 05:36:19;;;;;;;16.13;5.07;;;17.60;32.90;;;;;;5097819;28;20447;-72
2023/06/27 05:38:44;;;;;;;14.70;5.50;;;17.60;32.40;;;;;;5097512;28;20851;-71
2023/06/27 05:41:10;;;;;;;13.10;5.20;;;17.60;32.80;;;;;;5096549;28;20417;-70
2023/06/27 05:43:35;;;;;;;23.95;5.57;;;17.50;33.00;;;;;;5097175;28;20404;-73
2023/06/27 05:46:01;;;;;;;20.10;5.27;;;17.70;32.50;;;;;;5096204;28;20940;-71
2023/06/27 05:48:27;;;;;;;22.50;5.40;;;17.70;32.40;;;;;;5096933;28;20813;-71
2023/06/27 05:50:52;;;;;;;16.05;5.10;;;17.70;32.60;;;;;;5097693;28;20397;-72
2023/06/27 05:53:18;;;;;;;15.93;5.25;;;17.70;32.40;;;;;;5097157;28;20373;-71
2023/06/27 05:55:43;;;;;;;18.05;4.90;;;17.80;32.30;;;;;;5078705;28;20389;-71
2023/06/27 05:58:09;;;;;;;16.20;5.10;;;17.90;32.20;;;;;;5095776;28;20396;-71
2023/06/27 06:00:35;;;;;;;16.27;5.10;;;18.00;31.80;;;;;;5077163;28;20427;-71
2023/06/27 06:03:00;;;;;;;16.80;5.70;;;18.10;31.50;;;;;;5095554;28;20389;-72
2023/06/27 06:05:26;;;;;;;19.13;5.10;;;18.20;31.20;;;;;;5093324;28;20406;-71
2023/06/27 06:07:51;;;;;;;18.00;5.77;;;18.30;30.90;;;;;;5073757;28;20383;-70
2023/06/27 06:10:17;;;;;;;19.63;4.80;;;18.50;30.50;;;;;;5091610;28;20421;-70
2023/06/27 06:12:43;;;;;;;20.87;6.27;;;18.40;30.60;;;;;;5091120;28;20381;-71
2023/06/27 06:15:09;;;;;;;12.77;5.00;;;18.30;30.70;;;;;;5092288;28;20400;-71
2023/06/27 06:17:35;;;;;;;15.88;4.80;;;18.30;31.50;;;;;;5092034;28;20382;-71
2023/06/27 06:20:01;;;;;;;16.13;4.95;;;18.20;31.40;;;;;;5091249;28;20427;-70
2023/06/27 06:22:26;;;;;;;17.85;5.88;;;18.20;31.50;;;;;;5091242;28;20707;-70
2023/06/27 06:24:52;;;;;;;17.10;5.18;;;18.30;31.20;;;;;;5091423;28;20402;-71
2023/06/27 06:27:17;;;;;;;14.20;5.23;;;18.40;31.40;;;;;;5091337;28;20492;-71
2023/06/27 06:29:43;;;;;;;17.10;6.10;;;18.40;31.20;;;;;;5091199;28;20487;-71
2023/06/27 06:32:08;;;;;;;17.90;5.72;;;18.40;31.20;;;;;;5086530;28;20479;-70
2023/06/27 06:34:34;;;;;;;16.20;5.80;;;18.40;31.20;;;;;;5080126;28;20709;-71
2023/06/27 06:36:59;;;;;;;14.87;5.30;;;18.40;31.50;;;;;;5072717;28;20396;-73
2023/06/27 06:39:25;;;;;;;16.35;5.40;;;18.60;31.80;;;;;;5073471;28;20478;-73
2023/06/27 06:41:51;;;;;;;21.13;6.20;;;18.60;31.10;;;;;;5057679;28;20467;-72
2023/06/27 06:44:16;;;;;;;21.17;5.70;;;18.70;31.10;;;;;;5083320;28;20407;-72
2023/06/27 06:46:43;;;;;;;22.13;6.20;;;18.60;31.40;;;;;;5085190;28;20402;-73
2023/06/27 06:49:09;;;;;;;19.48;5.80;;;18.60;31.30;;;;;;5074174;28;20386;-73
2023/06/27 06:51:35;;;;;;;18.42;5.68;;;18.70;31.50;;;;;;5087081;28;20420;-73
2023/06/27 06:54:00;;;;;;;16.83;5.50;;;18.70;31.30;;;;;;5083003;28;20390;-74
2023/06/27 06:56:26;;;;;;;19.17;6.10;;;18.90;31.60;;;;;;5091354;28;20397;-72
2023/06/27 06:58:51;;;;;;;21.35;6.10;;;19.10;30.90;;;;;;5093832;28;20463;-75
2023/06/27 07:01:18;;;;;;;15.25;5.47;;;19.10;30.70;;;;;;5094978;28;20866;-71
2023/06/27 07:03:43;;;;;;;18.52;5.63;;;19.10;30.80;;;;;;5092981;28;20766;-71
2023/06/27 07:06:09;;;;;;;16.35;5.68;;;19.20;30.60;;;;;;5086659;28;20398;-71
2023/06/27 07:08:34;;;;;;;13.23;5.57;;;19.30;31.10;;;;;;5078136;28;20388;-70
2023/06/27 07:11:00;;;;;;;19.63;5.97;;;19.40;30.30;;;;;;5084706;28;20386;-70
2023/06/27 07:13:25;;;;;;;19.38;6.07;;;19.50;30.30;;;;;;5075403;28;20380;-70
2023/06/27 07:15:51;;;;;;;21.77;6.50;;;19.50;30.50;;;;;;5084238;28;20404;-71
2023/06/27 07:18:16;;;;;;;18.60;6.20;;;19.50;30.70;;;;;;5095924;28;20969;-72
2023/06/27 07:20:42;;;;;;;16.80;6.05;;;19.60;30.40;;;;;;5093420;28;20524;-71
2023/06/27 07:23:08;;;;;;;22.33;6.20;;;19.70;29.70;;;;;;5095695;28;20626;-70
2023/06/27 07:25:35;;;;;;;17.80;5.57;;;19.80;29.70;;;;;;5095546;28;20881;-71
2023/06/27 07:28:01;;;;;;;26.13;6.40;;;19.80;29.90;;;;;;5095680;28;20397;-70
2023/06/27 07:30:26;;;;;;;24.80;6.50;;;19.80;29.80;;;;;;5095808;28;20408;-70
2023/06/27 07:32:52;;;;;;;17.90;6.07;;;19.80;30.00;;;;;;5095555;28;20388;-71
2023/06/27 07:35:17;;;;;;;17.40;6.03;;;19.90;30.20;;;;;;5097218;28;20430;-71
2023/06/27 07:37:43;;;;;;;19.20;5.97;;;20.20;29.20;;;;;;5088657;28;20398;-71
2023/06/27 07:40:09;;;;;;;17.92;5.50;;;20.40;28.60;;;;;;5082833;28;20393;-72
2023/06/27 07:42:34;;;;;;;22.40;6.00;;;20.80;27.90;;;;;;5082128;28;20421;-72
2023/06/27 07:45:00;;;;;;;15.35;5.45;;;20.90;27.50;;;;;;5093240;28;20873;-71
2023/06/27 07:47:26;;;;;;;18.00;6.20;;;20.90;27.10;;;;;;5084511;28;20869;-70
2023/06/27 07:49:51;;;;;;;24.92;5.88;;;21.00;27.00;;;;;;5088148;28;20401;-71
2023/06/27 07:52:17;;;;;;;25.33;6.70;;;21.10;27.30;;;;;;5093512;28;20378;-71
2023/06/27 07:54:42;;;;;;;20.08;5.72;;;21.10;26.30;;;;;;5082605;28;20394;-71
2023/06/27 07:57:08;;;;;;;22.77;5.70;;;21.20;26.60;;;;;;5084517;28;20395;-72
2023/06/27 07:59:33;;;;;;;16.53;5.33;;;21.60;25.70;;;;;;5099403;28;20398;-70
2023/06/27 08:01:59;;;;;;;15.82;5.65;;;21.60;25.50;;;;;;5106363;28;20482;-72
2023/06/27 08:04:25;;;;;;;19.40;5.93;;;21.40;25.80;;;;;;5075548;28;20407;-72
2023/06/27 08:06:50;;;;;;;15.57;6.03;;;21.40;25.50;;;;;;5073369;28;20584;-71
2023/06/27 08:09:16;;;;;;;21.88;5.88;;;21.40;25.40;;;;;;5073473;28;20681;-72
2023/06/27 08:11:42;;;;;;;22.10;5.57;;;21.60;25.10;;;;;;5073073;28;20376;-71
2023/06/27 08:14:07;;;;;;;17.10;5.47;;;21.70;24.50;;;;;;5073178;28;20474;-71
2023/06/27 08:16:33;;;;;;;31.27;5.95;;;21.50;25.30;;;;;;5073104;28;20868;-72
2023/06/27 08:18:59;;;;;;;17.40;5.78;;;21.50;25.90;;;;;;5073099;28;20396;-72
2023/06/27 08:21:24;;;;;;;25.48;6.63;;;21.50;25.10;;;;;;5072649;28;20463;-71
2023/06/27 08:23:50;;;;;;;18.83;5.20;;;21.60;24.80;;;;;;5055021;28;20710;-70
2023/06/27 08:26:17;;;;;;;19.35;5.35;;;21.50;24.60;;;;;;5072787;28;20700;-70
2023/06/27 08:28:43;;;;;;;20.30;5.90;;;21.50;24.90;;;;;;5073051;28;20383;-70
2023/06/27 08:31:10;;;;;;;16.20;4.80;;;21.60;24.50;;;;;;5072673;28;20384;-71
2023/06/27 08:33:36;;;;;;;15.70;5.22;;;21.80;24.50;;;;;;5072567;28;20388;-72
2023/06/27 08:36:02;;;;;;;16.98;6.00;;;22.20;23.10;;;;;;5072663;28;20503;-72
2023/06/27 08:38:27;;;;;;;16.17;5.63;;;22.30;22.50;;;;;;5055324;28;20410;-71
2023/06/27 08:40:54;;;;;;;15.17;4.93;;;22.30;22.40;;;;;;5072585;28;20760;-71
2023/06/27 08:43:20;;;;;;;18.60;5.43;;;22.20;22.50;;;;;;5072582;28;20693;-71
2023/06/27 08:45:47;;;;;;;21.50;5.70;;;22.20;22.60;;;;;;5072350;28;20753;-72
2023/06/27 08:48:17;;;;;;;15.60;5.35;;;22.40;22.50;;;;;;5072529;28;20387;-71
2023/06/27 08:50:43;;;;;;;14.50;5.45;;;22.70;20.50;;;;;;5072348;28;20731;-71
2023/06/27 08:53:14;;;;;;;14.15;4.40;;;22.90;20.70;;;;;;5072172;28;20471;-71
2023/06/27 08:55:58;;;;;;;12.00;3.97;;;23.00;19.40;;;;;;5072399;28;20387;-70
2023/06/27 08:58:30;;;;;;;12.98;4.40;;;23.30;19.00;;;;;;5072070;28;20860;-71
2023/06/27 09:00:56;;;;;;;15.25;4.50;;;23.60;18.60;;;;;;5072070;28;20391;-71
2023/06/27 09:03:22;;;;;;;8.05;3.40;;;23.90;17.80;;;;;;5071959;28;20387;-70
2023/06/27 09:05:48;;;;;;;14.18;3.30;;;23.80;16.60;;;;;;5072190;28;20403;-71
2023/06/27 09:08:13;;;;;;;13.15;3.70;;;23.70;16.30;;;;;;5071652;28;20391;-72
2023/06/27 09:10:43;;;;;;;11.40;3.20;;;24.00;16.50;;;;;;5072034;28;20380;-70
2023/06/27 09:13:09;;;;;;;15.05;3.90;;;24.30;14.40;;;;;;5071844;28;20872;-72
2023/06/27 09:15:35;;;;;;;14.70;3.33;;;24.40;15.00;;;;;;5071994;28;20461;-71
2023/06/27 09:18:00;;;;;;;8.83;3.53;;;24.50;15.10;;;;;;5071637;28;20445;-71
2023/06/27 09:20:26;;;;;;;11.05;3.40;;;24.60;14.00;;;;;;5072133;28;20811;-70
2023/06/27 09:22:52;;;;;;;11.53;3.40;;;24.60;13.80;;;;;;5072069;28;20383;-69
2023/06/27 09:25:21;;;;;;;8.95;3.10;;;24.90;13.10;;;;;;5071879;28;20403;-71
2023/06/27 09:27:47;;;;;;;9.95;2.50;;;24.60;13.50;;;;;;5072290;28;20379;-71
2023/06/27 09:30:13;;;;;;;7.80;3.00;;;24.50;11.70;;;;;;5072143;28;20993;-70
2023/06/27 09:32:52;;;;;;;10.30;3.40;;;24.40;10.80;;;;;;5071972;28;20490;-70
2023/06/27 09:35:18;;;;;;;10.10;3.53;;;24.20;12.70;;;;;;5071657;28;20433;-70
2023/06/27 09:37:44;;;;;;;11.20;3.10;;;24.10;13.70;;;;;;5072331;28;20744;-69
2023/06/27 09:40:20;;;;;;;9.02;2.90;;;24.50;14.20;;;;;;5071621;28;20388;-71
2023/06/27 09:42:50;;;;;;;10.98;2.60;;;24.60;11.90;;;;;;5071509;28;20432;-72
2023/06/27 09:45:16;;;;;;;6.80;2.50;;;24.80;10.40;;;;;;5053838;28;20406;-71
2023/06/27 09:47:42;;;;;;;6.43;2.95;;;24.90;10.70;;;;;;5053096;28;20384;-71
2023/06/27 09:50:08;;;;;;;6.93;2.70;;;24.60;11.90;;;;;;5071345;28;20388;-71
2023/06/27 09:52:33;;;;;;;13.37;3.27;;;24.50;11.60;;;;;;5071356;28;20430;-71
2023/06/27 09:54:59;;;;;;;14.60;2.60;;;24.80;11.80;;;;;;5071695;28;20399;-71
2023/06/27 09:57:25;;;;;;;11.53;2.90;;;24.90;11.80;;;;;;5072018;28;20396;-71
2023/06/27 09:59:57;;;;;;;6.40;2.57;;;25.10;11.00;;;;;;5072628;28;20387;-72
2023/06/27 10:02:28;;;;;;;10.18;2.90;;;25.20;10.20;;;;;;5072501;28;20388;-70
2023/06/27 10:04:53;;;;;;;8.60;2.83;;;25.10;11.80;;;;;;5072894;28;20745;-71
2023/06/27 10:07:20;;;;;;;8.87;2.90;;;24.80;10.80;;;;;;5071133;28;20388;-69
2023/06/27 10:09:46;;;;;;;10.32;3.47;;;24.80;10.80;;;;;;5072734;28;20397;-70
2023/06/27 10:12:14;;;;;;;9.85;3.05;;;24.60;11.70;;;;;;5072790;28;20398;-70
2023/06/27 10:14:43;;;;;;;8.97;2.60;;;24.50;12.00;;;;;;5072973;28;20466;-70
2023/06/27 10:17:10;;;;;;;8.73;3.00;;;24.40;12.40;;;;;;5054183;28;20380;-71
2023/06/27 10:19:37;;;;;;;10.45;3.38;;;24.30;12.80;;;;;;5071600;28;20414;-71
2023/06/27 10:22:10;;;;;;;7.40;3.05;;;24.50;11.90;;;;;;5071282;28;20872;-70
2023/06/27 10:24:39;;;;;;;10.98;3.20;;;24.70;11.70;;;;;;5073683;28;20420;-71
2023/06/27 10:27:07;;;;;;;6.20;2.88;;;24.80;12.20;;;;;;5078809;28;20376;-71
2023/06/27 10:29:33;;;;;;;10.65;2.92;;;24.90;11.10;;;;;;5087368;28;20384;-71
2023/06/27 10:31:59;;;;;;;10.47;3.17;;;25.00;10.10;;;;;;5080560;28;20406;-71
2023/06/27 10:34:25;;;;;;;11.20;2.75;;;25.10;10.60;;;;;;5072739;28;20383;-71
2023/06/27 10:37:01;;;;;;;8.07;2.50;;;25.20;10.30;;;;;;5071435;28;20384;-71
2023/06/27 10:39:40;;;;;;;9.02;2.70;;;25.30;9.40;;;;;;5071285;28;20383;-71
2023/06/27 10:42:18;;;;;;;7.65;3.10;;;25.20;9.70;;;;;;5071375;28;20399;-71
2023/06/27 10:45:07;;;;;;;7.85;3.30;;;24.80;11.00;;;;;;5071648;28;20407;-72
2023/06/27 10:47:38;;;;;;;10.07;2.72;;;24.60;11.90;;;;;;5055329;28;20384;-70
2023/06/27 10:50:14;;;;;;;8.80;2.80;;;24.80;10.90;;;;;;5071824;28;20887;-71
2023/06/27 10:53:00;;;;;;;8.93;2.67;;;24.80;10.20;;;;;;5071521;28;21054;-71
2023/06/27 10:55:29;;;;;;;7.88;2.67;;;24.70;9.80;;;;;;5072414;28;20411;-70
2023/06/27 10:58:09;;;;;;;13.40;3.60;;;24.60;10.50;;;;;;5083454;28;20380;-70
2023/06/27 11:00:35;;;;;;;8.55;2.58;;;24.90;10.40;;;;;;5090646;28;20390;-71
2023/06/27 11:03:03;;;;;;;7.97;2.70;;;24.80;10.80;;;;;;5072727;28;20388;-70
2023/06/27 11:05:36;;;;;;;9.77;2.90;;;24.50;12.00;;;;;;5085510;28;20411;-70
2023/06/27 11:08:03;;;;;;;9.50;3.05;;;24.30;11.80;;;;;;5078841;28;20787;-72
2023/06/27 11:10:29;;;;;;;6.75;2.78;;;24.50;12.20;;;;;;5075044;28;20380;-72
2023/06/27 11:13:14;;;;;;;12.35;3.05;;;24.80;11.40;;;;;;5074745;28;20397;-71
2023/06/27 11:15:44;;;;;;;8.80;2.70;;;24.80;11.30;;;;;;5074970;28;20391;-72
2023/06/27 11:18:12;;;;;;;9.03;2.93;;;24.50;12.00;;;;;;5074973;28;20472;-71
2023/06/27 11:20:38;;;;;;;13.65;2.90;;;24.20;12.60;;;;;;5075189;28;20416;-71
2023/06/27 11:23:04;;;;;;;7.93;3.00;;;23.80;13.30;;;;;;5075345;28;20371;-71
2023/06/27 11:25:44;;;;;;;7.20;3.33;;;23.50;14.40;;;;;;5075221;28;20554;-69
2023/06/27 11:28:11;;;;;;;8.90;3.42;;;22.80;15.00;;;;;;5075389;28;20403;-71
2023/06/27 11:30:38;;;;;;;15.13;3.50;;;22.60;15.70;;;;;;5057395;28;20763;-69
2023/06/27 11:33:03;;;;;;;11.93;3.67;;;22.30;16.10;;;;;;5074855;28;20864;-71
2023/06/27 11:35:30;;;;;;;9.90;3.33;;;22.50;16.70;;;;;;5075104;28;20418;-71
2023/06/27 11:37:57;;;;;;;12.13;3.22;;;23.00;15.30;;;;;;5075007;28;20383;-70
2023/06/27 11:40:23;;;;;;;9.90;3.40;;;23.50;13.80;;;;;;5075128;28;20887;-71
2023/06/27 11:42:49;;;;;;;14.52;3.60;;;23.90;12.70;;;;;;5074808;28;20446;-69
2023/06/27 11:45:15;;;;;;;9.47;3.40;;;24.40;11.80;;;;;;5056360;28;20928;-71
2023/06/27 11:47:41;;;;;;;6.60;2.83;;;24.70;11.50;;;;;;5074619;28;20500;-71
2023/06/27 11:50:11;;;;;;;9.57;3.33;;;24.80;10.60;;;;;;5074697;28;20387;-71
2023/06/27 11:52:37;;;;;;;10.65;3.10;;;25.00;10.10;;;;;;5074499;28;20388;-70
2023/06/27 11:55:05;;;;;;;13.27;3.47;;;25.00;10.50;;;;;;5075554;28;20383;-70
2023/06/27 11:57:44;;;;;;;12.85;4.00;;;25.00;10.90;;;;;;5076732;28;20777;-70
2023/06/27 12:00:14;;;;;;;8.57;3.60;;;25.50;10.80;;;;;;5078375;28;20467;-70
2023/06/27 12:02:40;;;;;;;10.80;3.60;;;25.20;10.80;;;;;;5075655;28;20383;-73
2023/06/27 12:05:15;;;;;;;8.85;3.90;;;25.10;11.60;;;;;;5075307;28;20415;-71
2023/06/27 12:07:53;;;;;;;10.15;3.70;;;25.60;10.60;;;;;;5074199;28;20378;-70
2023/06/27 12:10:19;;;;;;;8.63;2.80;;;26.10;10.20;;;;;;5055285;28;20726;-71
2023/06/27 12:12:44;;;;;;;8.57;2.45;;;26.20;6.20;;;;;;5055952;28;20382;-71
2023/06/27 12:15:14;;;;;;;9.23;2.47;;;26.30;4.90;;;;;;5073976;28;20383;-70
2023/06/27 12:18:01;;;;;;;7.78;2.70;;;25.80;5.70;;;;;;5074416;28;20454;-70
2023/06/27 12:20:40;;;;;;;11.95;2.67;;;25.90;5.90;;;;;;5052729;28;20428;-70
2023/06/27 12:23:06;;;;;;;7.07;2.78;;;26.40;6.30;;;;;;5054108;28;20451;-70
2023/06/27 12:25:32;;;;;;;11.32;3.20;;;26.80;5.70;;;;;;5055559;28;20409;-71
2023/06/27 12:27:57;;;;;;;7.57;2.73;;;27.40;4.80;;;;;;5055730;28;20396;-71
2023/06/27 12:30:23;;;;;;;8.85;3.00;;;26.80;5.40;;;;;;5055521;28;20803;-71
2023/06/27 12:32:48;;;;;;;8.00;2.70;;;26.50;6.30;;;;;;5055193;28;20743;-71
2023/06/27 12:35:17;;;;;;;9.43;2.93;;;26.20;6.60;;;;;;5054853;28;20374;-71
2023/06/27 12:37:44;;;;;;;7.53;2.78;;;26.10;7.10;;;;;;5058714;28;20397;-71
2023/06/27 12:40:11;;;;;;;10.20;3.10;;;26.10;6.90;;;;;;5054339;28;20399;-69
2023/06/27 12:42:36;;;;;;;8.45;3.30;;;25.80;7.50;;;;;;5053811;28;20470;-69